createdAt,value
2019-04-20T00:01:32.065Z,7.15
2019-04-20T00:04:35.657Z,7.00
2019-04-20T00:07:39.704Z,7.03
2019-04-20T00:10:52.957Z,6.78
2019-04-20T00:13:59.453Z,6.40
2019-04-20T00:16:54.801Z,6.80
2019-04-20T00:20:00.400Z,6.42
2019-04-20T00:23:26.989Z,6.70
2019-04-20T00:26:59.630Z,7.75
2019-04-20T00:29:49.643Z,7.47
2019-04-20T00:32:54.670Z,6.97
2019-04-20T00:35:46.342Z,7.08
2019-04-20T00:38:55.926Z,6.80
2019-04-20T00:42:03.511Z,6.62
2019-04-20T00:45:09.814Z,7.17
2019-04-20T00:48:19.971Z,7.05
2019-04-20T00:51:31.448Z,7.15
2019-04-20T00:54:18.467Z,8.28
2019-04-20T00:57:33.963Z,7.97
2019-04-20T01:00:53.033Z,7.80
2019-04-20T01:03:47.449Z,8.43
2019-04-20T01:07:11.298Z,8.70
2019-04-20T01:10:09.282Z,8.33
2019-04-20T01:13:18.366Z,8.88
2019-04-20T01:16:29.351Z,8.85
2019-04-20T01:19:24.644Z,8.60
2019-04-20T01:22:30.576Z,8.60
2019-04-20T01:25:39.163Z,8.08
2019-04-20T01:28:54.262Z,7.80
2019-04-20T01:32:03.274Z,7.58
2019-04-20T01:35:02.370Z,8.35
2019-04-20T01:38:16.684Z,11.33
2019-04-20T01:41:03.376Z,10.20
2019-04-20T01:44:07.320Z,9.70
2019-04-20T01:47:12.022Z,9.53
2019-04-20T01:50:23.579Z,7.67
2019-04-20T01:53:41.358Z,7.78
2019-04-20T01:56:44.829Z,7.60
2019-04-20T01:59:51.794Z,10.13
2019-04-20T02:02:58.197Z,8.08
2019-04-20T02:06:11.049Z,7.67
2019-04-20T02:09:15.830Z,8.28
2019-04-20T02:12:23.591Z,8.05
2019-04-20T02:15:30.015Z,7.70
2019-04-20T02:18:39.932Z,7.80
2019-04-20T02:21:51.976Z,7.50
2019-04-20T02:24:40.583Z,7.00
2019-04-20T02:27:50.142Z,7.65
2019-04-20T02:31:32.695Z,8.18
2019-04-20T02:38:03.119Z,7.42
2019-04-20T02:47:19.513Z,7.65
2019-04-20T02:50:15.063Z,8.18
2019-04-20T02:56:37.429Z,8.85
2019-04-20T03:02:18.172Z,8.48
2019-04-20T03:05:20.666Z,7.87
2019-04-20T03:08:31.897Z,8.15
2019-04-20T03:11:51.392Z,8.15
2019-04-20T03:14:39.659Z,7.75
2019-04-20T03:17:51.234Z,8.23
2019-04-20T03:21:00.963Z,8.88
2019-04-20T03:24:15.820Z,9.23
2019-04-20T03:27:07.967Z,10.03
2019-04-20T03:31:15.146Z,8.73
2019-04-20T03:36:57.505Z,8.50
2019-04-20T03:39:46.447Z,8.58
2019-04-20T03:42:34.961Z,10.70
2019-04-20T03:45:48.626Z,8.25
2019-04-20T03:48:59.740Z,8.18
2019-04-20T03:52:24.540Z,8.33
2019-04-20T03:55:40.945Z,8.48
2019-04-20T03:58:47.156Z,8.78
2019-04-20T04:05:19.214Z,7.83
2019-04-20T04:08:17.979Z,7.87
2019-04-20T04:11:34.067Z,8.20
2019-04-20T04:14:20.106Z,8.53
2019-04-20T04:17:28.813Z,8.15
2019-04-20T04:20:38.743Z,8.50
2019-04-20T04:23:48.908Z,8.48
2019-04-20T04:26:54.832Z,8.18
2019-04-20T04:30:03.245Z,8.15
2019-04-20T04:33:40.439Z,9.33
2019-04-20T04:36:15.588Z,8.43
2019-04-20T04:39:29.403Z,8.68
2019-04-20T04:42:28.110Z,7.95
2019-04-20T04:45:17.568Z,8.30
2019-04-20T04:48:26.011Z,8.93
2019-04-20T04:51:33.235Z,8.03
2019-04-20T04:54:42.276Z,7.95
2019-04-20T04:57:36.849Z,8.23
2019-04-20T05:00:40.888Z,8.18
2019-04-20T05:04:11.560Z,7.67
2019-04-20T05:07:05.173Z,7.47
2019-04-20T05:09:56.977Z,7.95
2019-04-20T05:13:00.975Z,6.92
2019-04-20T05:16:21.690Z,7.87
2019-04-20T05:19:29.813Z,7.47
2019-04-20T05:22:36.847Z,7.05
2019-04-20T05:26:00.581Z,7.35
2019-04-20T05:28:48.391Z,7.40
2019-04-20T05:31:51.882Z,6.87
2019-04-20T05:35:14.648Z,7.05
2019-04-20T05:38:25.654Z,7.65
2019-04-20T05:41:21.317Z,6.45
2019-04-20T05:44:27.675Z,6.92
2019-04-20T05:47:37.763Z,6.83
2019-04-20T05:50:41.975Z,7.00
2019-04-20T05:53:50.460Z,6.42
2019-04-20T05:57:00.828Z,6.40
2019-04-20T06:03:05.532Z,5.78
2019-04-20T06:06:19.035Z,5.92
2019-04-20T06:09:24.057Z,5.67
2019-04-20T06:12:28.537Z,6.37
2019-04-20T06:15:51.736Z,5.35
2019-04-20T06:19:13.062Z,5.00
2019-04-20T06:22:13.882Z,4.55
2019-04-20T06:25:40.934Z,4.90
2019-04-20T06:28:20.358Z,4.85
2019-04-20T06:31:42.526Z,4.50
2019-04-20T06:37:43.846Z,4.20
2019-04-20T06:40:55.619Z,4.95
2019-04-20T06:43:57.855Z,4.37
2019-04-20T06:47:02.763Z,4.30
2019-04-20T06:50:03.121Z,4.37
2019-04-20T06:53:32.410Z,4.00
2019-04-20T06:56:37.633Z,3.80
2019-04-20T06:59:43.329Z,4.78
2019-04-20T07:06:04.119Z,3.10
2019-04-20T07:09:07.543Z,2.70
2019-04-20T07:12:02.934Z,3.85
2019-04-20T07:15:01.763Z,2.50
2019-04-20T07:18:16.687Z,2.55
2019-04-20T07:21:37.782Z,2.40
2019-04-20T07:24:38.563Z,2.52
2019-04-20T07:27:35.522Z,2.37
2019-04-20T07:30:46.305Z,2.40
2019-04-20T07:33:55.146Z,2.30
2019-04-20T07:37:17.726Z,2.30
2019-04-20T07:40:02.646Z,2.10
2019-04-20T07:43:02.538Z,2.40
2019-04-20T07:46:20.779Z,2.40
2019-04-20T07:49:18.219Z,2.10
2019-04-20T07:52:04.171Z,2.00
2019-04-20T07:58:25.050Z,2.10
2019-04-20T08:01:52.642Z,2.65
2019-04-20T08:04:47.710Z,2.80
2019-04-20T08:07:46.436Z,2.92
2019-04-20T08:11:06.221Z,2.55
2019-04-20T08:14:12.928Z,2.20
2019-04-20T08:17:20.385Z,2.00
2019-04-20T08:20:20.494Z,2.52
2019-04-20T08:23:44.027Z,2.95
2019-04-20T08:26:20.307Z,2.20
2019-04-20T08:29:31.671Z,2.15
2019-04-20T08:33:00.427Z,2.60
2019-04-20T08:36:10.747Z,2.40
2019-04-20T08:39:30.376Z,2.40
2019-04-20T08:42:24.812Z,2.62
2019-04-20T08:45:36.725Z,2.35
2019-04-20T08:48:41.172Z,2.40
2019-04-20T08:51:49.706Z,2.47
2019-04-20T08:54:43.302Z,2.98
2019-04-20T08:57:33.599Z,2.08
2019-04-20T09:00:42.900Z,2.58
2019-04-20T09:03:55.850Z,2.77
2019-04-20T09:07:02.575Z,2.47
2019-04-20T09:10:16.416Z,2.58
2019-04-20T09:13:11.612Z,2.58
2019-04-20T09:16:06.776Z,2.70
2019-04-20T09:19:13.283Z,2.65
2019-04-20T09:22:44.094Z,2.62
2019-04-20T09:26:01.861Z,2.83
2019-04-20T09:28:59.005Z,2.52
2019-04-20T09:32:11.428Z,2.52
2019-04-20T09:35:19.392Z,3.65
2019-04-20T09:38:22.179Z,2.70
2019-04-20T09:41:40.883Z,2.30
2019-04-20T09:44:20.044Z,2.20
2019-04-20T09:47:32.670Z,2.80
2019-04-20T09:50:52.223Z,2.40
2019-04-20T09:53:46.311Z,2.35
2019-04-20T09:57:03.252Z,3.15
2019-04-20T10:00:04.225Z,3.60
2019-04-20T10:02:52.704Z,3.65
2019-04-20T10:05:56.651Z,3.98
2019-04-20T10:09:05.014Z,6.60
2019-04-20T10:12:07.960Z,3.50
2019-04-20T10:15:17.704Z,4.40
2019-04-20T10:18:19.480Z,4.22
2019-04-20T10:21:23.837Z,5.28
2019-04-20T10:24:28.526Z,6.58
2019-04-20T10:27:32.775Z,6.20
2019-04-20T10:33:41.740Z,5.70
2019-04-20T10:36:47.914Z,6.67
2019-04-20T10:39:52.363Z,5.53
2019-04-20T10:42:59.496Z,6.17
2019-04-20T10:46:02.688Z,5.53
2019-04-20T10:49:08.315Z,5.30
2019-04-20T10:52:13.711Z,6.12
2019-04-20T10:55:18.680Z,6.35
2019-04-20T10:58:22.819Z,5.53
2019-04-20T11:01:27.462Z,5.58
2019-04-20T11:04:32.729Z,5.53
2019-04-20T11:07:36.821Z,4.45
2019-04-20T11:10:55.699Z,5.12
2019-04-20T11:13:47.949Z,4.83
2019-04-20T11:16:52.033Z,5.20
2019-04-20T11:19:57.176Z,5.00
2019-04-20T11:23:02.339Z,4.70
2019-04-20T11:26:06.452Z,4.45
2019-04-20T11:29:10.613Z,4.50
2019-04-20T11:32:15.852Z,4.75
2019-04-20T11:35:27.816Z,4.40
2019-04-20T11:38:26.124Z,4.17
2019-04-20T11:41:32.734Z,4.00
2019-04-20T11:44:36.554Z,4.25
2019-04-20T11:50:45.426Z,3.95
2019-04-20T11:53:50.177Z,3.65
2019-04-20T11:56:55.488Z,4.42
2019-04-20T11:59:59.590Z,4.33
2019-04-20T12:03:16.043Z,4.90
2019-04-20T12:06:14.976Z,6.03
2019-04-20T12:09:19.114Z,6.25
2019-04-20T12:12:35.010Z,5.23
2019-04-20T12:15:34.769Z,4.20
2019-04-20T12:18:37.882Z,4.40
2019-04-20T12:21:42.307Z,5.78
2019-04-20T12:24:46.269Z,5.03
2019-04-20T12:27:54.039Z,5.45
2019-04-20T12:31:03.085Z,4.78
2019-04-20T12:34:02.342Z,5.40
2019-04-20T12:37:07.127Z,5.60
2019-04-20T12:40:12.436Z,5.47
2019-04-20T12:43:17.313Z,5.62
2019-04-20T12:49:27.556Z,5.42
2019-04-20T12:52:32.417Z,5.12
2019-04-20T12:55:36.777Z,5.53
2019-04-20T12:58:43.405Z,5.37
2019-04-20T13:01:47.088Z,5.37
2019-04-20T13:04:51.228Z,4.53
2019-04-20T13:07:59.385Z,5.40
2019-04-20T13:11:06.526Z,5.47
2019-04-20T13:14:30.603Z,5.33
2019-04-20T13:17:34.797Z,5.40
2019-04-20T13:20:39.733Z,5.33
2019-04-20T13:23:44.925Z,5.83
2019-04-20T13:26:49.120Z,8.68
2019-04-20T13:29:54.551Z,6.17
2019-04-20T13:32:59.491Z,7.17
2019-04-20T13:36:04.154Z,6.50
2019-04-20T13:39:10.159Z,5.90
2019-04-20T13:42:21.216Z,5.35
2019-04-20T13:45:21.285Z,5.72
2019-04-20T13:51:30.829Z,6.15
2019-04-20T13:54:35.847Z,6.47
2019-04-20T13:57:51.672Z,7.65
2019-04-20T14:01:00.986Z,8.03
2019-04-20T14:04:10.671Z,6.08
2019-04-20T14:07:15.888Z,6.28
2019-04-20T14:10:21.618Z,7.15
2019-04-20T14:13:35.246Z,5.92
2019-04-20T14:16:31.677Z,7.30
2019-04-20T14:19:36.913Z,6.03
2019-04-20T14:22:41.132Z,6.10
2019-04-20T14:25:45.183Z,6.00
2019-04-20T14:28:49.229Z,6.00
2019-04-20T14:31:53.216Z,6.55
2019-04-20T14:34:58.578Z,10.38
2019-04-20T14:38:03.891Z,7.55
2019-04-20T14:41:08.545Z,7.80
2019-04-20T14:44:14.029Z,5.97
2019-04-20T14:47:19.293Z,10.03
2019-04-20T14:50:25.518Z,6.08
2019-04-20T14:53:29.575Z,16.90
2019-04-20T14:56:33.704Z,6.70
2019-04-20T14:59:43.433Z,9.08
2019-04-20T15:02:48.010Z,7.08
2019-04-20T15:05:55.699Z,7.87
2019-04-20T15:09:00.862Z,6.72
2019-04-20T15:15:10.482Z,7.20
2019-04-20T15:18:16.093Z,6.83
2019-04-20T15:21:21.737Z,7.22
2019-04-20T15:24:25.737Z,7.08
2019-04-20T15:27:30.310Z,6.40
2019-04-20T15:30:34.390Z,6.50
2019-04-20T15:33:39.109Z,6.62
2019-04-20T15:36:44.291Z,5.87
2019-04-20T15:42:58.834Z,7.50
2019-04-20T15:45:57.305Z,6.70
2019-04-20T15:49:01.978Z,6.00
2019-04-20T15:52:06.004Z,7.12
2019-04-20T15:55:19.673Z,8.93
2019-04-20T15:58:16.385Z,6.78
2019-04-20T16:01:22.780Z,10.75
2019-04-20T16:04:45.403Z,8.38
2019-04-20T16:07:55.114Z,7.17
2019-04-20T16:10:55.198Z,6.85
2019-04-20T16:14:00.155Z,7.37
2019-04-20T16:17:08.323Z,7.30
2019-04-20T16:20:15.649Z,19.07
2019-04-20T16:23:16.610Z,16.42
2019-04-20T16:26:25.866Z,21.70
2019-04-20T16:29:31.341Z,13.30
2019-04-20T16:32:36.607Z,14.50
2019-04-20T16:35:40.627Z,13.30
2019-04-20T16:38:45.600Z,10.48
2019-04-20T16:44:53.580Z,6.67
2019-04-20T16:48:00.028Z,12.98
2019-04-20T16:51:04.789Z,19.55
2019-04-20T16:54:10.066Z,7.78
2019-04-20T16:57:15.873Z,7.50
2019-04-20T17:00:20.454Z,11.73
2019-04-20T17:03:37.274Z,14.18
2019-04-20T17:06:31.999Z,15.25
2019-04-20T17:09:37.791Z,12.70
2019-04-20T17:12:43.733Z,12.40
2019-04-20T17:15:48.006Z,10.35
2019-04-20T17:18:52.434Z,11.35
2019-04-20T17:21:57.338Z,11.38
2019-04-20T17:25:01.880Z,11.38
2019-04-20T17:28:24.799Z,12.25
2019-04-20T17:31:31.525Z,10.72
2019-04-20T17:34:55.798Z,12.47
2019-04-20T17:37:45.069Z,12.23
2019-04-20T17:41:02.806Z,12.73
2019-04-20T17:44:11.864Z,13.85
2019-04-20T17:47:20.477Z,13.93
2019-04-20T17:50:29.311Z,19.65
2019-04-20T17:53:29.415Z,17.77
2019-04-20T17:56:22.196Z,17.30
2019-04-20T18:03:00.632Z,18.98
2019-04-20T18:06:12.680Z,19.80
2019-04-20T18:09:13.304Z,21.27
2019-04-20T18:12:07.584Z,23.90
2019-04-20T18:15:31.428Z,24.47
2019-04-20T18:18:41.644Z,23.40
2019-04-20T18:21:36.756Z,24.57
2019-04-20T18:25:02.731Z,26.20
2019-04-20T18:28:04.117Z,29.50
2019-04-20T18:31:11.177Z,51.33
2019-04-20T18:34:20.654Z,138.05
2019-04-20T18:37:23.975Z,74.72
2019-04-20T18:40:39.866Z,49.53
2019-04-20T18:43:42.706Z,32.60
2019-04-20T18:47:06.670Z,22.50
2019-04-20T18:51:53.711Z,16.42
2019-04-20T18:54:37.545Z,18.42
2019-04-20T18:57:19.661Z,16.55
2019-04-20T18:59:54.496Z,21.07
2019-04-20T19:02:32.640Z,27.85
2019-04-20T19:05:03.246Z,28.23
2019-04-20T19:07:42.435Z,26.37
2019-04-20T19:10:22.035Z,22.02
2019-04-20T19:12:57.131Z,20.48
2019-04-20T19:15:55.250Z,20.52
2019-04-20T19:18:45.271Z,20.77
2019-04-20T19:21:03.763Z,19.42
2019-04-20T19:23:48.618Z,18.50
2019-04-20T19:26:18.187Z,18.37
2019-04-20T19:28:53.901Z,21.87
2019-04-20T19:31:39.334Z,58.75
2019-04-20T19:34:18.877Z,46.40
2019-04-20T19:36:43.627Z,35.13
2019-04-20T19:39:25.753Z,26.45
2019-04-20T19:41:55.553Z,24.65
2019-04-20T19:44:39.567Z,22.00
2019-04-20T19:47:20.953Z,19.40
2019-04-20T19:49:44.979Z,21.82
2019-04-20T19:52:51.707Z,21.02
2019-04-20T19:55:09.389Z,25.00
2019-04-20T19:57:42.797Z,23.85
2019-04-20T20:00:00.468Z,23.07
2019-04-20T20:02:34.412Z,20.85
2019-04-20T20:05:12.426Z,20.77
2019-04-20T20:07:49.355Z,22.82
2019-04-20T20:10:28.020Z,21.48
2019-04-20T20:13:00.681Z,22.30
2019-04-20T20:15:34.921Z,21.65
2019-04-20T20:18:23.380Z,26.20
2019-04-20T20:20:59.552Z,30.92
2019-04-20T20:23:20.363Z,37.23
2019-04-20T20:25:54.940Z,26.45
2019-04-20T20:28:38.309Z,21.20
2019-04-20T20:31:17.108Z,19.92
2019-04-20T20:33:56.148Z,18.80
2019-04-20T20:36:21.298Z,18.45
2019-04-20T20:38:59.101Z,18.98
2019-04-20T20:41:43.705Z,18.90
2019-04-20T20:44:15.704Z,19.92
2019-04-20T20:46:55.082Z,26.50
2019-04-20T20:49:33.961Z,39.92
2019-04-20T20:52:14.571Z,47.55
2019-04-20T20:54:41.350Z,52.85
2019-04-20T20:57:11.620Z,55.23
2019-04-20T20:59:51.385Z,46.63
2019-04-20T21:02:44.673Z,37.73
2019-04-20T21:05:13.659Z,23.95
2019-04-20T21:07:50.787Z,17.45
2019-04-20T21:10:34.243Z,14.28
2019-04-20T21:13:03.426Z,16.23
2019-04-20T21:15:38.199Z,20.55
2019-04-20T21:18:33.222Z,24.82
2019-04-20T21:21:06.696Z,22.93
2019-04-20T21:23:36.747Z,14.10
2019-04-20T21:26:17.012Z,17.48
2019-04-20T21:28:45.799Z,21.15
2019-04-20T21:31:24.351Z,19.75
2019-04-20T21:33:57.216Z,21.77
2019-04-20T21:36:33.091Z,17.67
2019-04-20T21:39:16.498Z,14.28
2019-04-20T21:41:50.919Z,10.08
2019-04-20T21:44:25.252Z,10.35
2019-04-20T21:46:58.214Z,12.80
2019-04-20T21:49:46.283Z,11.35
2019-04-20T21:52:18.381Z,12.20
2019-04-20T21:54:44.135Z,12.53
2019-04-20T21:59:54.271Z,11.90
2019-04-20T22:02:33.866Z,12.63
2019-04-20T22:05:05.365Z,12.75
2019-04-20T22:07:40.756Z,12.95
2019-04-20T22:10:20.234Z,13.78
2019-04-20T22:12:54.632Z,14.00
2019-04-20T22:15:31.934Z,13.88
2019-04-20T22:18:07.358Z,14.05
2019-04-20T22:20:56.105Z,14.30
2019-04-20T22:23:33.022Z,13.10
2019-04-20T22:26:04.147Z,14.53
2019-04-20T22:28:26.517Z,13.85
2019-04-20T22:31:20.351Z,14.40
2019-04-20T22:33:54.623Z,13.18
2019-04-20T22:36:35.573Z,12.82
2019-04-20T22:39:13.750Z,12.53
2019-04-20T22:41:53.504Z,12.18
2019-04-20T22:44:28.592Z,12.73
2019-04-20T22:47:05.456Z,14.33
2019-04-20T22:49:53.178Z,14.43
2019-04-20T22:52:30.873Z,14.83
2019-04-20T22:55:15.322Z,13.72
2019-04-20T22:57:39.352Z,13.30
2019-04-20T23:00:06.914Z,12.80
2019-04-20T23:02:36.609Z,12.15
2019-04-20T23:05:10.976Z,12.53
2019-04-20T23:07:46.515Z,11.88
2019-04-20T23:10:27.841Z,10.78
2019-04-20T23:12:59.253Z,10.45
2019-04-20T23:15:32.535Z,9.88
2019-04-20T23:18:06.833Z,9.50
2019-04-20T23:20:42.436Z,9.40
2019-04-20T23:23:21.129Z,9.60
2019-04-20T23:25:53.367Z,9.13
2019-04-20T23:28:27.448Z,9.50
2019-04-20T23:36:11.517Z,8.93
2019-04-20T23:38:49.995Z,9.25
2019-04-20T23:41:21.876Z,9.80
2019-04-20T23:44:03.976Z,9.65
2019-04-20T23:46:35.080Z,10.30
2019-04-20T23:49:24.081Z,9.45
2019-04-20T23:52:09.788Z,9.58
2019-04-20T23:54:31.838Z,9.35
2019-04-20T23:57:03.981Z,9.90
2019-04-20T23:59:41.816Z,9.50
